Ivate, Brazil
Current Conditions -  °F | °C
As of 1:00 PM on Sunday 21 Dec 2014 (Local Time) from SBMG Reporting Station
Broken Clouds Broken Clouds  
Wind Chill: 82°   Ceiling: 7000
Heat Index: 87°   Visibility: 6mi
Dew Point: 72°   Wind: 24mph
Humidity: 70%   Direction: 330°NNW
Pressure: 29.83"   Gusts: 37mph
Location:  23.41°S, 53.37°W
Report Text: SBMG 211500Z 33021G32KT 9999 SCT025 BKN070 28/22 Q1010
Loading
Personal Weather Stations






























Interactive Weather Map New forecast layout! Learn more

10-Day Weather Forecast

Advertisements
Track Severe Weather on mobile